Time;durP1;ratioP1;P1;durP2;ratioP2;P2;SDS_P1;SDS_P2;PMS_P1;PMS_P2;Temp;Humidity;BMP_temperature;BMP_pressure;BME280_temperature;BME280_humidity;BME280_pressure;Samples;Min_cycle;Max_cycle;Signal;HPM_P1;HPM_P2
2022/10/18 00:02:25;;;;;;;3.00;2.90;;;;;;;-142.65;95.12;50162.81;5113564;28;20177;-68
2022/10/18 00:04:52;;;;;;;2.90;2.80;;;;;;;-142.65;95.14;50168.78;5113539;28;20546;-68
2022/10/18 00:07:18;;;;;;;2.87;2.87;;;;;;;-142.65;95.09;50168.78;5113390;28;20209;-67
2022/10/18 00:09:44;;;;;;;3.47;3.47;;;;;;;-142.65;94.88;50162.81;5113386;28;20193;-68
2022/10/18 00:12:11;;;;;;;2.83;2.80;;;;;;;;;;5113995;28;20204;-68
2022/10/18 00:14:37;;;;;;;3.50;3.30;;;;;;;;;;5113481;28;20193;-68
2022/10/18 00:17:03;;;;;;;4.23;3.63;;;;;;;;;;5113410;28;20189;-68
2022/10/18 00:19:30;;;;;;;3.03;2.93;;;;;;;-142.65;94.88;50162.81;5113519;28;20177;-67
2022/10/18 00:21:56;;;;;;;2.67;2.60;;;;;;;;;;5113244;28;20687;-68
2022/10/18 00:24:22;;;;;;;2.40;2.30;;;;;;;-142.65;94.93;50164.81;5113571;28;20204;-68
2022/10/18 00:26:49;;;;;;;2.70;2.70;;;;;;;-142.65;95.14;50164.81;5113452;28;20193;-68
2022/10/18 00:29:16;;;;;;;2.50;2.50;;;;;;;-142.65;95.26;50170.78;5095105;28;20198;-68
2022/10/18 00:31:43;;;;;;;3.70;3.70;;;;;;;;;;5113208;28;20578;-68
2022/10/18 00:34:13;;;;;;;2.93;2.90;;;;;;;-142.65;95.17;50164.81;5113813;28;20639;-68
2022/10/18 00:36:39;;;;;;;2.80;2.60;;;;;;;-142.65;95.21;50168.78;5113208;28;20177;-68
2022/10/18 00:39:07;;;;;;;2.67;2.57;;;;;;;-142.65;95.22;50164.81;5117001;28;20188;-68
2022/10/18 00:41:35;;;;;;;3.30;3.10;;;;;;;;;;5116934;28;20683;-68
2022/10/18 00:44:05;;;;;;;4.27;2.83;;;;;;;-142.65;95.41;50162.81;5116998;28;20203;-68
2022/10/18 00:46:33;;;;;;;3.30;3.20;;;;;;;;;;5117493;28;20173;-68
2022/10/18 00:49:02;;;;;;;2.70;2.70;;;;;;;-142.65;95.45;50164.81;5117366;28;20220;-68
2022/10/18 00:51:35;;;;;;;3.20;2.87;;;;;;;-142.65;95.45;50168.78;5117100;28;20659;-68
2022/10/18 00:54:02;;;;;;;3.47;3.37;;;;;;;-142.65;95.60;50164.81;5117137;28;20615;-68
2022/10/18 00:56:28;;;;;;;2.90;2.77;;;;;;;-142.65;95.82;50162.81;5116749;28;20185;-68
2022/10/18 00:58:56;;;;;;;3.40;3.20;;;;;;;-142.65;95.66;50164.81;5116942;28;20208;-68
2022/10/18 01:01:22;;;;;;;2.97;2.73;;;;;;;-142.65;95.78;50160.81;5116723;28;20216;-68
2022/10/18 01:03:55;;;;;;;2.67;2.67;;;;;;;-142.65;95.95;50160.81;5117172;28;20256;-68
2022/10/18 01:06:21;;;;;;;3.00;2.90;;;;;;;;;;5116551;28;20186;-68
2022/10/18 01:08:51;;;;;;;2.83;2.73;;;;;;;;;;5116455;28;20580;-68
2022/10/18 01:11:29;;;;;;;3.47;3.33;;;;;;;-142.65;95.91;50162.81;5116400;28;20208;-68
2022/10/18 01:14:08;;;;;;;2.30;2.30;;;;;;;-142.65;95.87;50164.81;5116610;28;20193;-68
2022/10/18 01:16:51;;;;;;;2.80;2.80;;;;;;;;;;5116380;28;20192;-68
2022/10/18 01:19:30;;;;;;;2.80;2.70;;;;;;;-142.65;95.95;50172.78;5116590;28;20173;-68
2022/10/18 01:22:00;;;;;;;2.50;2.40;;;;;;;;;;5116485;28;20216;-68
2022/10/18 01:24:38;;;;;;;3.27;2.93;;;;;;;;;;5116246;28;20177;-68
2022/10/18 01:27:17;;;;;;;2.70;2.60;;;;;;;-142.65;96.28;50162.81;5098386;28;20184;-68
2022/10/18 01:30:16;;;;;;;12.90;3.90;;;;;;;;;;5116301;28;20169;-69
2022/10/18 01:32:47;;;;;;;3.30;3.17;;;;;;;-142.65;96.22;50170.78;5060791;28;20201;-68
2022/10/18 01:35:18;;;;;;;3.80;3.50;;;;;;;-142.65;96.29;50162.81;5116291;28;20180;-68
2022/10/18 01:37:48;;;;;;;2.47;2.47;;;;;;;-142.65;96.35;50162.81;5116267;28;20189;-68
2022/10/18 01:40:19;;;;;;;3.17;3.17;;;;;;;-142.65;96.32;50168.78;5116142;28;20205;-68
2022/10/18 01:42:48;;;;;;;3.30;3.17;;;;;;;-142.65;96.49;50168.78;5116157;28;20185;-68
2022/10/18 01:45:15;;;;;;;2.80;2.80;;;;;;;-142.65;96.56;50162.81;5116125;28;20177;-68
2022/10/18 01:47:44;;;;;;;3.60;3.30;;;;;;;-142.65;96.51;50162.81;5115656;28;20209;-68
2022/10/18 01:50:10;;;;;;;5.20;3.03;;;;;;;-142.65;96.60;50168.78;5115117;28;20563;-68
2022/10/18 01:52:50;;;;;;;3.57;3.37;;;;;;;-142.65;96.70;50164.81;5116191;28;20181;-68
2022/10/18 01:55:18;;;;;;;4.60;4.07;;;;;;;;;;5115636;28;20191;-68
2022/10/18 01:57:51;;;;;;;3.97;3.77;;;;;;;;;;5115548;28;20192;-68
2022/10/18 02:00:24;;;;;;;3.20;2.97;;;;;;;-142.65;96.64;50162.81;5115480;28;20209;-68
2022/10/18 02:02:55;;;;;;;3.13;3.13;;;;;;;-142.65;96.79;50164.81;5115700;28;20549;-68
2022/10/18 02:05:24;;;;;;;3.17;3.03;;;;;;;;;;5115713;28;20181;-68
2022/10/18 02:08:05;;;;;;;3.87;3.67;;;;;;;-142.65;96.96;50172.78;5115829;28;20200;-68
2022/10/18 02:10:49;;;;;;;2.83;2.83;;;;;;;;;;5099814;28;20236;-68
2022/10/18 02:13:19;;;;;;;3.53;3.50;;;;;;;-142.65;97.37;50168.78;5115687;28;20186;-68
2022/10/18 02:15:47;;;;;;;4.07;3.90;;;;;;;;;;5115748;28;20176;-68
2022/10/18 02:18:19;;;;;;;3.67;3.67;;;;;;;;;;5115367;28;20177;-68
2022/10/18 02:20:47;;;;;;;4.10;4.00;;;;;;;-142.65;96.92;50174.75;5115069;28;20208;-68
2022/10/18 02:23:19;;;;;;;3.50;3.50;;;;;;;-142.65;96.98;50164.81;5115031;28;20655;-68
2022/10/18 02:25:46;;;;;;;3.53;3.43;;;;;;;;;;5114983;28;20180;-68
2022/10/18 02:28:12;;;;;;;3.17;3.17;;;;;;;-142.65;97.22;50164.81;5114829;28;20196;-68
2022/10/18 02:30:49;;;;;;;3.67;3.50;;;;;;;;;;5115361;28;20616;-68
2022/10/18 02:33:26;;;;;;;3.67;3.53;;;;;;;;;;5115152;28;20184;-68
2022/10/18 02:36:00;;;;;;;3.50;3.40;;;;;;;-142.65;97.50;50164.81;5114760;28;20643;-68
2022/10/18 02:38:30;;;;;;;2.70;2.70;;;;;;;-142.65;97.52;50170.78;5114768;28;20174;-68
2022/10/18 02:40:57;;;;;;;3.33;3.33;;;;;;;;;;5096313;28;20745;-68
2022/10/18 02:43:24;;;;;;;4.23;4.13;;;;;;;;;;5114653;28;20188;-68
2022/10/18 02:45:50;;;;;;;3.40;3.30;;;;;;;;;;5114841;28;20186;-68
2022/10/18 02:48:17;;;;;;;16.20;2.87;;;;;;;-142.65;97.71;50164.81;5115339;28;20212;-68
2022/10/18 02:50:43;;;;;;;4.37;4.20;;;;;;;-142.65;97.74;50162.81;5114507;28;20209;-68
2022/10/18 02:53:09;;;;;;;3.00;2.90;;;;;;;;;;5114467;28;20191;-68
2022/10/18 02:55:35;;;;;;;3.30;3.03;;;;;;;-142.65;97.82;50168.78;5114725;28;20186;-68
2022/10/18 02:58:02;;;;;;;3.30;3.20;;;;;;;-142.65;97.82;50162.81;5114434;28;20185;-68
2022/10/18 03:00:28;;;;;;;3.83;3.50;;;;;;;;;;5114576;28;20212;-68
2022/10/18 03:02:54;;;;;;;3.30;3.30;;;;;;;;;;5114592;28;20275;-68
2022/10/18 03:05:20;;;;;;;3.00;3.00;;;;;;;;;;5114282;28;20185;-68
2022/10/18 03:07:47;;;;;;;3.57;3.30;;;;;;;-142.65;97.86;50162.81;5114138;28;20181;-68
2022/10/18 03:10:13;;;;;;;3.10;2.80;;;;;;;-142.65;97.93;50170.78;5114316;28;20212;-67
2022/10/18 03:12:40;;;;;;;3.17;3.10;;;;;;;;;;5114686;28;20199;-67
2022/10/18 03:15:06;;;;;;;3.57;3.47;;;;;;;;;;5113993;28;20190;-67
2022/10/18 03:17:32;;;;;;;4.40;4.17;;;;;;;;;;5114171;28;20192;-67
2022/10/18 03:19:59;;;;;;;3.90;3.80;;;;;;;;;;5113973;28;20185;-67
2022/10/18 03:22:26;;;;;;;3.77;3.77;;;;;;;-142.65;97.96;50118.97;5114004;28;20185;-67
2022/10/18 03:24:54;;;;;;;3.80;3.70;;;;;;;-142.65;97.96;50164.81;5114282;28;20185;-67
2022/10/18 03:27:20;;;;;;;3.73;3.53;;;;;;;;;;5114481;28;20547;-67
2022/10/18 03:29:47;;;;;;;5.90;4.17;;;;;;;-142.65;97.97;50168.78;5114018;28;20675;-67
2022/10/18 03:32:13;;;;;;;4.03;4.03;;;;;;;-142.65;98.06;50164.81;5113814;28;20196;-67
2022/10/18 03:34:39;;;;;;;4.03;3.93;;;;;;;;;;5113817;28;20197;-67
2022/10/18 03:37:05;;;;;;;4.03;4.03;;;;;;;;;;5113753;28;20196;-67
2022/10/18 03:39:32;;;;;;;4.37;4.13;;;;;;;-142.65;98.23;50164.81;5114248;28;20192;-67
2022/10/18 03:41:58;;;;;;;3.70;3.50;;;;;;;-142.65;98.09;50170.78;5113886;28;20635;-67
2022/10/18 03:44:24;;;;;;;3.33;3.27;;;;;;;-142.65;98.18;50164.81;5113622;28;20193;-67
2022/10/18 03:46:51;;;;;;;2.90;2.90;;;;;;;-142.65;98.28;50164.81;5113632;28;20189;-67
2022/10/18 03:49:17;;;;;;;3.90;3.10;;;;;;;-142.65;98.26;50168.78;5113613;28;20215;-67
2022/10/18 03:51:43;;;;;;;2.80;2.80;;;;;;;-142.65;98.04;50118.97;5113567;28;20718;-67
2022/10/18 03:54:10;;;;;;;3.30;3.20;;;;;;;-142.65;98.33;50168.78;5113780;28;20200;-67
2022/10/18 03:56:36;;;;;;;3.23;3.13;;;;;;;;;;5113557;28;20200;-67
2022/10/18 03:59:03;;;;;;;4.07;3.90;;;;;;;-142.65;98.30;50170.78;5113517;28;20185;-67
2022/10/18 04:01:29;;;;;;;3.70;3.60;;;;;;;;;;5113598;28;20224;-67
2022/10/18 04:03:56;;;;;;;3.80;3.70;;;;;;;-142.65;98.38;50168.78;5113495;28;20185;-67
2022/10/18 04:06:22;;;;;;;4.30;4.10;;;;;;;-142.65;98.54;50168.78;5113498;28;20196;-67
2022/10/18 04:08:48;;;;;;;4.83;4.47;;;;;;;-142.65;98.52;50164.81;5113408;28;20205;-67
2022/10/18 04:11:15;;;;;;;4.17;4.07;;;;;;;-142.65;98.65;50164.81;5114181;28;20217;-67
2022/10/18 04:13:41;;;;;;;4.63;4.30;;;;;;;-142.65;98.73;50168.78;5116551;28;20199;-67
2022/10/18 04:16:07;;;;;;;4.40;4.30;;;;;;;;;;5117447;28;20651;-67
2022/10/18 04:18:33;;;;;;;4.03;3.93;;;;;;;;;;5117499;28;20555;-67
2022/10/18 04:21:00;;;;;;;3.63;3.53;;;;;;;;;;5117327;28;20205;-68
2022/10/18 04:23:26;;;;;;;3.27;3.27;;;;;;;-142.65;98.82;50168.78;5117570;28;20192;-68
2022/10/18 04:25:52;;;;;;;7.40;4.53;;;;;;;;;;5117563;28;20185;-68
2022/10/18 04:28:19;;;;;;;4.57;3.70;;;;;;;;;;5117107;28;20201;-68
2022/10/18 04:30:50;;;;;;;6.60;4.10;;;;;;;-142.65;99.33;50164.81;5117176;28;20679;-68
2022/10/18 04:33:17;;;;;;;4.20;4.00;;;;;;;;;;5117190;28;20185;-68
2022/10/18 04:35:43;;;;;;;4.90;4.47;;;;;;;-142.65;99.50;50164.81;5117140;28;20185;-68
2022/10/18 04:38:10;;;;;;;4.27;4.13;;;;;;;-142.65;99.44;50168.78;5117130;28;20195;-67
2022/10/18 04:40:36;;;;;;;4.80;4.70;;;;;;;-142.65;99.61;50162.81;5114506;28;20578;-68
2022/10/18 04:43:03;;;;;;;5.00;4.60;;;;;;;-142.65;99.69;50170.78;5096355;28;20200;-68
2022/10/18 04:45:29;;;;;;;9.40;5.27;;;;;;;-142.65;99.50;50164.81;5096570;28;20544;-67
2022/10/18 04:47:55;;;;;;;4.03;4.03;;;;;;;;;;5096821;28;20589;-67
2022/10/18 04:50:22;;;;;;;4.57;4.47;;;;;;;-142.65;99.50;50168.78;5096532;28;20232;-67
2022/10/18 04:52:50;;;;;;;6.57;5.17;;;;;;;-142.65;99.61;50118.97;5096991;28;20200;-67
2022/10/18 04:55:17;;;;;;;5.67;5.20;;;;;;;-142.65;100.00;50170.78;5096938;28;20182;-67
2022/10/18 04:57:43;;;;;;;5.60;5.27;;;;;;;-142.65;99.90;50170.78;5096585;28;20201;-67
2022/10/18 05:00:10;;;;;;;5.07;4.77;;;;;;;;;;5096216;28;20206;-68
2022/10/18 05:02:36;;;;;;;8.50;5.43;;;;;;;-142.65;100.00;50168.78;5096855;28;20186;-67
2022/10/18 05:05:03;;;;;;;4.10;3.63;;;;;;;-142.65;100.00;50164.81;5096490;28;20544;-67
2022/10/18 05:07:29;;;;;;;5.83;5.53;;;;;;;-142.65;100.00;50162.81;5096450;28;20186;-67
2022/10/18 05:09:55;;;;;;;5.60;5.40;;;;;;;;;;5095906;28;20213;-68
2022/10/18 05:12:22;;;;;;;6.10;5.63;;;;;;;;;;5096072;28;20185;-67
2022/10/18 05:14:48;;;;;;;6.40;6.03;;;;;;;-142.65;100.00;50170.78;5095987;28;20194;-67
2022/10/18 05:17:14;;;;;;;6.20;5.80;;;;;;;;;;5096557;28;20656;-67
2022/10/18 05:19:41;;;;;;;5.00;4.77;;;;;;;-142.65;100.00;50164.81;5095865;28;20192;-67
2022/10/18 05:22:07;;;;;;;8.53;7.13;;;;;;;-142.65;100.00;50168.78;5095792;28;20198;-67
2022/10/18 05:24:33;;;;;;;13.90;6.40;;;;;;;-142.65;100.00;50162.81;5094667;28;20200;-67
2022/10/18 05:27:00;;;;;;;6.63;6.13;;;;;;;-142.65;100.00;50168.78;5095722;28;20197;-67
2022/10/18 05:29:26;;;;;;;6.73;6.07;;;;;;;;;;5096211;28;20292;-67
2022/10/18 05:31:57;;;;;;;7.00;6.30;;;;;;;-142.65;100.00;50170.78;5095666;28;20573;-68
2022/10/18 05:34:26;;;;;;;13.83;6.97;;;;;;;-142.65;100.00;50172.78;5095630;28;20186;-68
2022/10/18 05:36:52;;;;;;;7.67;7.03;;;;;;;-142.65;100.00;50162.81;5095709;28;20562;-67
2022/10/18 05:39:18;;;;;;;12.73;7.47;;;;;;;-142.65;100.00;50170.78;5095461;28;20186;-67
2022/10/18 05:41:45;;;;;;;8.27;7.60;;;;;;;;;;5095643;28;20564;-68
2022/10/18 05:44:11;;;;;;;6.87;6.27;;;;;;;-142.65;100.00;50174.75;5095905;28;20190;-68
2022/10/18 05:46:37;;;;;;;6.63;6.23;;;;;;;-142.65;100.00;50170.78;5095394;28;20186;-68
2022/10/18 05:49:04;;;;;;;8.53;7.97;;;;;;;-142.65;100.00;50168.78;5095456;28;20197;-68
2022/10/18 05:51:30;;;;;;;6.73;6.33;;;;;;;-142.65;100.00;50164.81;5095238;28;20202;-67
2022/10/18 05:53:57;;;;;;;8.77;7.33;;;;;;;;;;5095490;28;20193;-67
2022/10/18 05:56:23;;;;;;;6.80;6.23;;;;;;;-142.65;100.00;50168.78;5095437;28;20200;-67
2022/10/18 05:58:51;;;;;;;5.80;5.53;;;;;;;-142.65;100.00;50170.78;5095294;28;20178;-67
2022/10/18 06:01:18;;;;;;;6.37;5.83;;;;;;;-142.65;100.00;50168.78;5095318;28;20210;-67
2022/10/18 06:03:44;;;;;;;6.80;6.20;;;;;;;-142.65;100.00;50164.81;5095285;28;20578;-67
2022/10/18 06:06:12;;;;;;;5.77;5.30;;;;;;;-142.65;100.00;50170.78;5095087;28;20670;-67
2022/10/18 06:08:40;;;;;;;6.60;6.20;;;;;;;-142.65;100.00;50162.81;5095113;28;20182;-67
2022/10/18 06:11:07;;;;;;;5.97;5.77;;;;;;;-142.65;100.00;50162.81;5095367;28;20206;-68
2022/10/18 06:13:34;;;;;;;6.77;6.37;;;;;;;-142.65;100.00;50168.78;5094709;28;20202;-68
2022/10/18 06:16:00;;;;;;;9.17;8.37;;;;;;;-142.65;100.00;50168.78;5095105;28;20170;-68
2022/10/18 06:18:26;;;;;;;7.67;7.13;;;;;;;-142.65;100.00;50168.78;5094703;28;20182;-68
2022/10/18 06:20:57;;;;;;;8.03;7.47;;;;;;;-142.65;100.00;50164.81;5094937;28;20201;-68
2022/10/18 06:23:25;;;;;;;8.10;7.37;;;;;;;;;;5094884;28;20186;-67
2022/10/18 06:25:51;;;;;;;8.33;7.70;;;;;;;-142.65;100.00;50170.78;5095102;28;20193;-67
2022/10/18 06:28:17;;;;;;;8.33;7.93;;;;;;;;;;5094583;28;20194;-67
2022/10/18 06:30:44;;;;;;;9.53;8.20;;;;;;;-142.65;100.00;50168.78;5094478;28;20221;-68
2022/10/18 06:33:13;;;;;;;15.93;8.70;;;;;;;-142.65;100.00;50164.81;5094712;28;20193;-68
2022/10/18 06:35:39;;;;;;;11.20;9.30;;;;;;;-142.65;100.00;50170.78;5094656;28;20174;-67
2022/10/18 06:38:05;;;;;;;13.47;9.87;;;;;;;;;;5094293;28;20204;-67
2022/10/18 06:40:36;;;;;;;11.43;8.37;;;;;;;-142.65;100.00;50164.81;5094374;28;20206;-67
2022/10/18 06:43:05;;;;;;;10.10;9.20;;;;;;;-142.65;100.00;50118.97;5094627;28;20201;-67
2022/10/18 06:45:46;;;;;;;9.43;8.43;;;;;;;-142.65;100.00;50168.78;5094478;28;20196;-67
2022/10/18 06:48:13;;;;;;;11.73;10.33;;;;;;;-142.65;100.00;50168.78;5094119;28;20194;-67
2022/10/18 06:50:39;;;;;;;16.70;9.60;;;;;;;-142.65;100.00;50168.78;5094223;28;20270;-68
2022/10/18 06:53:07;;;;;;;23.70;10.27;;;;;;;-142.65;100.00;50170.78;5094055;28;20193;-67
2022/10/18 06:55:34;;;;;;;19.70;10.47;;;;;;;-142.65;100.00;50117.00;5094031;28;20193;-67
2022/10/18 06:58:01;;;;;;;10.73;9.50;;;;;;;-142.65;100.00;50162.81;5093863;28;20190;-67
2022/10/18 07:00:27;;;;;;;12.73;10.27;;;;;;;;;;5094153;28;20694;-68
2022/10/18 07:02:53;;;;;;;20.43;9.47;;;;;;;;;;5094265;28;20543;-68
2022/10/18 07:05:20;;;;;;;20.97;10.93;;;;;;;-142.65;100.00;50168.78;5094413;28;20579;-68
2022/10/18 07:07:46;;;;;;;25.30;12.77;;;;;;;-142.65;100.00;50162.81;5094137;28;20193;-68
2022/10/18 07:10:12;;;;;;;40.93;16.70;;;;;;;-142.65;100.00;50164.81;5093615;28;20218;-68
2022/10/18 07:12:39;;;;;;;45.57;17.47;;;;;;;-142.65;100.00;50170.78;5093729;28;20185;-68
2022/10/18 07:15:05;;;;;;;40.83;16.00;;;;;;;-142.65;100.00;50164.81;5093679;28;20189;-68
2022/10/18 07:17:35;;;;;;;39.23;16.80;;;;;;;-142.65;100.00;50162.81;5093704;28;20192;-68
2022/10/18 07:20:03;;;;;;;41.13;17.17;;;;;;;;;;5093845;28;20559;-68
2022/10/18 07:22:29;;;;;;;27.40;14.87;;;;;;;-142.65;100.00;50168.78;5093594;28;20570;-67
2022/10/18 07:24:55;;;;;;;33.80;14.57;;;;;;;-142.65;100.00;50164.81;5094102;28;20189;-67
2022/10/18 07:27:22;;;;;;;49.77;19.03;;;;;;;-142.65;100.00;50164.81;5093572;28;20362;-67
2022/10/18 07:29:48;;;;;;;44.37;17.87;;;;;;;-142.65;100.00;50117.00;5093369;28;20209;-68
2022/10/18 07:32:15;;;;;;;37.13;17.37;;;;;;;-142.65;100.00;50168.78;5093482;28;20189;-68
2022/10/18 07:34:41;;;;;;;42.87;16.47;;;;;;;-142.65;100.00;50162.81;5093461;28;20190;-67
2022/10/18 07:37:08;;;;;;;47.27;18.80;;;;;;;-142.65;100.00;50162.81;5093332;28;20189;-67
2022/10/18 07:39:35;;;;;;;48.80;21.40;;;;;;;;;;5093944;28;20538;-67
2022/10/18 07:42:01;;;;;;;36.33;18.93;;;;;;;-142.65;100.00;50162.81;5093304;28;20603;-67
2022/10/18 07:44:27;;;;;;;52.73;20.60;;;;;;;-142.65;100.00;50164.81;5093326;28;20181;-67
2022/10/18 07:46:54;;;;;;;43.13;17.77;;;;;;;;;;5092659;28;20178;-67
2022/10/18 07:49:20;;;;;;;51.13;20.20;;;;;;;-142.65;100.00;50164.81;5093253;28;20206;-67
2022/10/18 07:51:46;;;;;;;40.80;19.20;;;;;;;-142.65;100.00;50164.81;5093255;28;20208;-68
2022/10/18 07:54:13;;;;;;;44.40;20.47;;;;;;;-142.65;100.00;50162.81;5094088;28;20515;-67
2022/10/18 07:56:39;;;;;;;64.30;23.30;;;;;;;-142.65;100.00;50162.81;5093808;28;20564;-67
2022/10/18 07:59:05;;;;;;;56.87;23.60;;;;;;;-142.65;100.00;50168.78;5093181;28;20182;-67
2022/10/18 08:01:33;;;;;;;57.13;22.63;;;;;;;;;;5093159;28;20214;-67
2022/10/18 08:03:59;;;;;;;43.20;21.10;;;;;;;-142.65;100.00;50168.78;5093133;28;20220;-67
2022/10/18 08:06:33;;;;;;;49.17;21.47;;;;;;;-142.65;100.00;50164.81;5093124;28;20185;-67
2022/10/18 08:08:59;;;;;;;68.67;23.40;;;;;;;;;;5093063;28;20178;-67
2022/10/18 08:11:25;;;;;;;43.30;20.03;;;;;;;-142.65;100.00;50162.81;5092992;28;20205;-67
2022/10/18 08:13:52;;;;;;;42.43;19.60;;;;;;;;;;5092989;28;20198;-67
2022/10/18 08:16:24;;;;;;;46.00;21.40;;;;;;;-142.65;100.00;50162.81;5093516;28;20532;-67
2022/10/18 08:18:50;;;;;;;48.93;20.47;;;;;;;-142.65;100.00;50170.78;5093630;28;20214;-67
2022/10/18 08:21:18;;;;;;;53.83;22.57;;;;;;;-142.65;100.00;50164.81;5092973;28;20205;-68
2022/10/18 08:23:45;;;;;;;46.73;20.00;;;;;;;;;;5093209;28;20194;-68
2022/10/18 08:26:20;;;;;;;44.17;19.10;;;;;;;-142.65;100.00;50162.81;5093266;28;20190;-67
2022/10/18 08:28:47;;;;;;;51.50;20.73;;;;;;;-142.65;100.00;50162.81;5093586;28;20184;-67
2022/10/18 08:31:24;;;;;;;50.00;19.63;;;;;;;-142.65;100.00;50164.81;5093485;28;20714;-68
2022/10/18 08:33:50;;;;;;;42.00;18.13;;;;;;;-142.65;100.00;50168.78;5092924;28;20194;-67
2022/10/18 08:36:17;;;;;;;53.47;20.93;;;;;;;;;;5093153;28;20198;-67
2022/10/18 08:38:43;;;;;;;57.27;20.87;;;;;;;-142.65;100.00;50162.81;5093377;28;20193;-67
2022/10/18 08:41:18;;;;;;;46.03;20.70;;;;;;;;;;5093057;28;20218;-67
2022/10/18 08:43:52;;;;;;;36.10;16.93;;;;;;;;;;5092812;28;20186;-67
2022/10/18 08:46:18;;;;;;;41.27;18.97;;;;;;;-142.65;100.00;50162.81;5093115;28;20557;-67
2022/10/18 08:48:50;;;;;;;40.87;18.30;;;;;;;-142.65;100.00;50162.81;5092695;28;20197;-67
2022/10/18 08:51:32;;;;;;;45.80;19.40;;;;;;;;;;5092717;28;20222;-67
2022/10/18 08:54:14;;;;;;;48.17;20.40;;;;;;;;;;5093312;28;20266;-67
2022/10/18 08:56:43;;;;;;;47.40;20.57;;;;;;;;;;5093030;28;20178;-67
2022/10/18 08:59:12;;;;;;;37.80;18.77;;;;;;;-142.65;100.00;50162.81;5094594;28;20197;-67
2022/10/18 09:01:54;;;;;;;47.83;19.63;;;;;;;-142.65;100.00;50160.81;5096157;28;20699;-67
2022/10/18 09:04:37;;;;;;;39.97;17.30;;;;;;;-142.65;100.00;50162.81;5096545;28;20189;-67
2022/10/18 09:07:22;;;;;;;48.50;18.07;;;;;;;;;;5096150;28;20181;-67
2022/10/18 09:09:59;;;;;;;39.13;17.77;;;;;;;-142.65;100.00;50162.81;5096008;28;20217;-67
2022/10/18 09:12:46;;;;;;;44.43;18.00;;;;;;;-142.65;100.00;50164.81;5096409;28;20185;-67
2022/10/18 09:15:20;;;;;;;33.70;18.23;;;;;;;-142.65;100.00;50164.81;5096098;28;20194;-67
2022/10/18 09:18:25;;;;;;;47.43;19.67;;;;;;;-142.65;100.00;50162.81;5096035;28;20650;-67
2022/10/18 09:20:55;;;;;;;45.97;19.60;;;;;;;;;;5072145;28;20225;-67
2022/10/18 09:23:40;;;;;;;51.43;20.40;;;;;;;-142.65;100.00;50160.81;5096129;28;20640;-67
2022/10/18 09:26:16;;;;;;;69.10;23.10;;;;;;;-142.65;100.00;50162.81;5096021;28;20643;-67
2022/10/18 09:29:01;;;;;;;51.40;21.00;;;;;;;-142.65;100.00;50164.81;5096031;28;20177;-67
2022/10/18 09:31:58;;;;;;;48.87;19.83;;;;;;;-142.65;100.00;50174.75;5095651;28;20221;-67
2022/10/18 09:34:34;;;;;;;51.07;20.90;;;;;;;-142.65;100.00;50170.78;5095651;28;20174;-67
2022/10/18 09:37:01;;;;;;;54.50;23.20;;;;;;;;;;5095637;28;20174;-67
2022/10/18 09:39:31;;;;;;;49.83;20.47;;;;;;;-142.65;100.00;50162.81;5095795;28;20186;-67
2022/10/18 09:42:16;;;;;;;55.70;21.40;;;;;;;;;;5095739;28;20206;-68
2022/10/18 09:44:54;;;;;;;47.93;20.33;;;;;;;-142.65;100.00;50164.81;5096016;28;20563;-67
2022/10/18 09:47:29;;;;;;;45.90;19.30;;;;;;;-142.65;100.00;50162.81;5095697;28;20189;-67
2022/10/18 09:50:04;;;;;;;39.83;17.83;;;;;;;-142.65;100.00;50168.78;5095417;28;20667;-68
2022/10/18 09:52:35;;;;;;;42.20;17.40;;;;;;;;;;5077187;28;20218;-67
2022/10/18 09:55:04;;;;;;;42.83;20.03;;;;;;;;;;5096406;28;20606;-67
2022/10/18 09:57:34;;;;;;;54.33;23.53;;;;;;;-142.65;99.98;50162.81;5095775;28;20192;-67
2022/10/18 10:00:03;;;;;;;54.43;21.80;;;;;;;-142.65;99.44;50162.81;5095428;28;20166;-68
2022/10/18 10:02:30;;;;;;;42.93;19.77;;;;;;;-142.65;99.16;50162.81;5095160;28;20269;-68
2022/10/18 10:04:56;;;;;;;45.00;18.90;;;;;;;-142.65;98.70;50164.81;5095649;28;20185;-68
2022/10/18 10:07:32;;;;;;;46.20;19.90;;;;;;;-142.65;98.00;50162.81;5076907;28;20193;-68
2022/10/18 10:10:12;;;;;;;45.20;18.50;;;;;;;-142.65;97.96;50168.78;5094220;28;20200;-68
2022/10/18 10:12:39;;;;;;;41.97;17.87;;;;;;;-142.65;97.49;50162.81;5095233;28;20185;-68
2022/10/18 10:15:20;;;;;;;39.03;18.70;;;;;;;-142.65;97.77;50101.06;5094691;28;20551;-68
2022/10/18 10:17:55;;;;;;;38.40;17.70;;;;;;;-142.65;97.47;50164.81;5095412;28;20507;-68
2022/10/18 10:20:26;;;;;;;33.97;17.07;;;;;;;-142.65;97.64;50164.81;5094730;28;20701;-68
2022/10/18 10:22:53;;;;;;;46.73;19.10;;;;;;;-142.65;97.11;50172.78;5094791;28;20543;-68
2022/10/18 10:25:27;;;;;;;41.37;16.63;;;;;;;;;;5094720;28;20671;-67
2022/10/18 10:27:53;;;;;;;30.33;15.83;;;;;;;-142.65;96.46;50162.81;5095196;28;20189;-67
2022/10/18 10:30:32;;;;;;;30.23;16.93;;;;;;;-142.65;96.02;50162.81;5095015;28;20217;-67
2022/10/18 10:32:59;;;;;;;39.13;16.40;;;;;;;-142.65;96.55;50162.81;5095036;28;20192;-67
2022/10/18 10:35:34;;;;;;;34.60;16.40;;;;;;;-142.65;95.57;50168.78;5095020;28;20716;-67
2022/10/18 10:38:23;;;;;;;28.23;14.67;;;;;;;;;;5094735;28;20269;-67
2022/10/18 10:40:50;;;;;;;25.47;14.53;;;;;;;;;;5094587;28;20206;-68
2022/10/18 10:43:16;;;;;;;38.47;16.53;;;;;;;;;;5094622;28;20178;-68
2022/10/18 10:46:05;;;;;;;33.90;14.80;;;;;;;;;;5094572;28;20235;-68
2022/10/18 10:48:33;;;;;;;23.47;15.30;;;;;;;;;;5094243;28;20193;-68
2022/10/18 10:51:06;;;;;;;28.23;15.07;;;;;;;-142.65;93.16;50162.81;5094281;28;20676;-68
2022/10/18 10:53:38;;;;;;;37.87;15.43;;;;;;;;;;5094720;28;20174;-68
2022/10/18 10:56:12;;;;;;;29.00;15.13;;;;;;;-142.65;91.95;50162.81;5094334;28;20178;-68
2022/10/18 10:58:41;;;;;;;28.03;14.50;;;;;;;-142.65;91.90;50164.81;5094042;28;20689;-68
2022/10/18 11:01:23;;;;;;;25.83;13.57;;;;;;;-142.65;91.73;50164.81;5094171;28;20212;-68
2022/10/18 11:03:51;;;;;;;19.47;12.53;;;;;;;;;;5093954;28;20186;-68
2022/10/18 11:06:42;;;;;;;21.93;12.13;;;;;;;-142.65;91.32;50164.81;5093853;28;20182;-68
2022/10/18 11:09:15;;;;;;;20.87;11.17;;;;;;;;;;5094193;28;20540;-68
2022/10/18 11:11:52;;;;;;;12.20;10.73;;;;;;;-142.65;88.61;50170.78;5093985;28;20576;-67
2022/10/18 11:14:24;;;;;;;12.23;10.33;;;;;;;-142.65;88.31;50174.75;5093799;28;20197;-67
2022/10/18 11:17:06;;;;;;;15.77;10.43;;;;;;;;;;5094086;28;20209;-67
2022/10/18 11:19:58;;;;;;;12.23;9.30;;;;;;;-142.65;86.69;50164.81;5094249;28;20227;-67
2022/10/18 11:22:27;;;;;;;13.07;7.80;;;;;;;-142.65;86.89;50164.81;5092819;28;20193;-68
2022/10/18 11:24:54;;;;;;;10.77;8.47;;;;;;;-142.65;86.35;50170.78;5093667;28;20197;-68
2022/10/18 11:27:34;;;;;;;9.00;6.23;;;;;;;-142.65;85.88;50170.78;5094113;28;20542;-68
2022/10/18 11:30:22;;;;;;;8.13;7.60;;;;;;;-142.65;86.09;50164.81;5093714;28;20178;-68
2022/10/18 11:33:20;;;;;;;7.67;6.90;;;;;;;-142.65;86.04;50168.78;5093762;28;20178;-68
2022/10/18 11:36:12;;;;;;;9.27;5.97;;;;;;;-142.65;85.76;50101.06;5093447;28;20171;-68
2022/10/18 11:38:48;;;;;;;8.70;7.93;;;;;;;-142.65;85.10;50164.81;5094050;28;20523;-68
2022/10/18 11:41:23;;;;;;;10.07;6.27;;;;;;;-142.65;83.13;50162.81;5093468;28;20212;-68
2022/10/18 11:44:13;;;;;;;8.23;6.07;;;;;;;;;;5093922;28;20202;-68
2022/10/18 11:46:53;;;;;;;7.90;7.03;;;;;;;-142.65;83.13;50162.81;5092954;28;20190;-68
2022/10/18 11:49:43;;;;;;;8.87;6.57;;;;;;;-142.65;80.90;50162.81;5093511;28;20180;-68
2022/10/18 11:52:46;;;;;;;7.33;6.93;;;;;;;-142.65;81.27;50168.78;5093180;28;20206;-68
2022/10/18 11:55:41;;;;;;;6.73;6.17;;;;;;;-142.65;81.88;50162.81;5093514;28;20170;-68
2022/10/18 11:58:18;;;;;;;10.73;7.10;;;;;;;-142.65;79.62;50164.81;5093739;28;20178;-68
2022/10/18 12:00:52;;;;;;;11.57;7.50;;;;;;;-142.65;80.10;50168.78;5093175;28;20209;-68
2022/10/18 12:03:49;;;;;;;10.40;6.73;;;;;;;-142.65;80.82;50164.81;5093812;28;20185;-68
2022/10/18 12:06:20;;;;;;;14.60;7.47;;;;;;;-142.65;79.04;50164.81;5093492;28;20171;-68
2022/10/18 12:08:49;;;;;;;10.03;7.13;;;;;;;;;;5093434;28;20639;-68
2022/10/18 12:11:19;;;;;;;11.63;7.57;;;;;;;-142.65;76.12;50162.81;5093224;28;20209;-68
2022/10/18 12:13:55;;;;;;;10.70;6.80;;;;;;;-142.65;76.62;50160.81;5093412;28;20679;-68
2022/10/18 12:16:23;;;;;;;6.90;6.40;;;;;;;;;;5093702;28;20189;-68